Time;durP1;ratioP1;P1;durP2;ratioP2;P2;SDS_P1;SDS_P2;PMS_P1;PMS_P2;Temp;Humidity;BMP_temperature;BMP_pressure;BME280_temperature;BME280_humidity;BME280_pressure;Samples;Min_cycle;Max_cycle;Signal;HPM_P1;HPM_P2
2023/08/09 00:02:07;;;;;;;2.47;2.20;;;;;;;;;;5057774;28;20577;-82
2023/08/09 00:04:36;;;;;;;3.63;2.60;;;;;;;;;;5057680;28;20488;-82
2023/08/09 00:07:03;;;;;;;6.93;2.17;;;;;;;;;;5056692;28;20445;-81
2023/08/09 00:09:30;;;;;;;2.20;1.97;;;;;;;;;;5057691;28;20443;-82
2023/08/09 00:11:57;;;;;;;5.80;2.10;;;;;;;;;;5056966;28;20564;-82
2023/08/09 00:14:24;;;;;;;3.37;2.27;;;;;;;;;;5057323;28;20543;-82
2023/08/09 00:16:51;;;;;;;3.33;1.80;;;;;;;;;;5057115;28;20456;-82
2023/08/09 00:19:19;;;;;;;2.17;1.90;;;;;;;;;;5057628;28;20451;-82
2023/08/09 00:21:47;;;;;;;2.17;1.90;;;;;;;;;;5056917;28;20492;-81
2023/08/09 00:24:15;;;;;;;6.40;2.03;;;;;;;;;;5057498;28;20457;-82
2023/08/09 00:26:43;;;;;;;2.83;2.23;;;;;;;;;;5056795;28;20453;-82
2023/08/09 00:29:10;;;;;;;3.73;2.40;;;;;;;;;;5056714;28;20441;-81
2023/08/09 00:31:37;;;;;;;3.23;2.30;;;;;;;;;;5056993;28;20480;-82
2023/08/09 00:34:06;;;;;;;3.10;2.20;;;;;;;;;;5056249;28;20488;-82
2023/08/09 00:36:34;;;;;;;3.97;2.10;;;;;;;;;;5056782;28;20444;-82
2023/08/09 00:39:05;;;;;;;2.87;2.00;;;;;;;;;;5056686;28;20515;-81
2023/08/09 00:41:32;;;;;;;2.57;2.10;;;;;;;;;;5056771;28;20898;-82
2023/08/09 00:44:01;;;;;;;3.47;2.17;;;;;;;;;;5056773;28;20523;-82
2023/08/09 00:46:28;;;;;;;2.20;1.83;;;;;;;;;;5057050;28;20522;-81
2023/08/09 00:48:55;;;;;;;3.33;2.40;;;;;;;;;;5056264;28;20945;-81
2023/08/09 00:51:23;;;;;;;4.30;1.93;;;;;;;;;;5056590;28;20981;-81
2023/08/09 00:53:50;;;;;;;5.63;2.50;;;;;;;;;;5056311;28;20452;-81
2023/08/09 00:56:19;;;;;;;4.27;2.30;;;;;;;;;;5057127;28;20475;-81
2023/08/09 00:58:46;;;;;;;2.53;2.00;;;;;;;;;;5056882;28;20814;-81
2023/08/09 01:01:13;;;;;;;5.10;2.40;;;;;;;;;;5056669;28;20460;-81
2023/08/09 01:03:40;;;;;;;4.50;2.20;;;;;;;;;;5056873;28;20894;-81
2023/08/09 01:06:13;;;;;;;2.70;2.07;;;;;;;;;;5056238;28;20449;-82
2023/08/09 01:08:45;;;;;;;2.50;1.90;;;;;;;;;;5056981;28;20503;-81
2023/08/09 01:11:17;;;;;;;6.53;4.47;;;;;;;;;;5056602;28;20504;-81
2023/08/09 01:13:46;;;;;;;3.97;2.87;;;;;;;;;;5056787;28;20445;-81
2023/08/09 01:16:14;;;;;;;2.80;2.07;;;;;;;;;;5056389;28;20488;-82
2023/08/09 01:18:42;;;;;;;3.50;2.10;;;;;;;;;;5056539;28;20451;-82
2023/08/09 01:21:09;;;;;;;2.30;1.90;;;;;;;;;;5055291;28;20449;-82
2023/08/09 01:23:38;;;;;;;3.60;2.00;;;;;;;;;;5056651;28;20468;-82
2023/08/09 01:26:05;;;;;;;3.53;1.93;;;;;;;;;;5056939;28;20437;-82
2023/08/09 01:28:32;;;;;;;3.60;2.00;;;;;;;;;;5056631;28;20460;-82
2023/08/09 01:30:59;;;;;;;4.57;2.03;;;;;;;;;;5056649;28;20440;-82
2023/08/09 01:33:27;;;;;;;3.40;2.43;;;;;;;;;;5056084;28;20468;-81
2023/08/09 01:35:57;;;;;;;2.67;2.00;;;;;;;;;;5056562;28;21008;-82
2023/08/09 01:38:26;;;;;;;3.17;2.50;;;;;;;;;;5056526;28;20456;-82
2023/08/09 01:40:55;;;;;;;2.50;2.00;;;;;;;;;;5056775;28;20891;-82
2023/08/09 01:43:23;;;;;;;3.27;1.80;;;;;;;;;;5056852;28;20445;-81
2023/08/09 01:45:50;;;;;;;3.33;1.97;;;;;;;;;;5056536;28;20448;-81
2023/08/09 01:48:17;;;;;;;4.30;2.20;;;;;;;;;;5056413;28;20941;-81
2023/08/09 01:50:45;;;;;;;2.10;1.90;;;;;;;;;;5056514;28;20452;-81
2023/08/09 01:53:12;;;;;;;2.60;2.20;;;;;;;;;;5056066;28;20480;-81
2023/08/09 01:55:41;;;;;;;2.07;1.80;;;;;;;;;;5056201;28;20548;-81
2023/08/09 01:58:10;;;;;;;2.80;2.07;;;;;;;;;;5056177;28;20504;-81
2023/08/09 02:00:37;;;;;;;3.30;2.53;;;;;;;;;;5056376;28;20437;-81
2023/08/09 02:03:06;;;;;;;4.10;1.87;;;;;;;;;;5057782;28;20563;-82
2023/08/09 02:05:33;;;;;;;2.17;1.97;;;;;;;;;;5059880;28;20513;-81
2023/08/09 02:08:00;;;;;;;2.83;2.10;;;;;;;;;;5059722;28;20444;-82
2023/08/09 02:10:28;;;;;;;2.93;2.13;;;;;;;;;;5059890;28;20528;-82
2023/08/09 02:12:55;;;;;;;5.73;1.80;;;;;;;;;;5061467;28;20449;-83
2023/08/09 02:15:24;;;;;;;2.23;1.57;;;;;;;;;;5060476;28;21017;-81
2023/08/09 02:17:51;;;;;;;6.00;2.73;;;;;;;;;;5059289;28;20448;-81
2023/08/09 02:20:19;;;;;;;3.50;2.73;;;;;;;;;;5059621;28;20447;-81
2023/08/09 02:22:46;;;;;;;3.80;1.80;;;;;;;;;;5059580;28;20463;-82
2023/08/09 02:25:14;;;;;;;3.10;2.07;;;;;;;;;;5060040;28;20480;-81
2023/08/09 02:27:41;;;;;;;3.17;2.00;;;;;;;;;;5059257;28;20996;-80
2023/08/09 02:30:09;;;;;;;2.77;2.57;;;;;;;;;;5059294;28;20524;-82
2023/08/09 02:32:37;;;;;;;4.17;2.43;;;;;;;;;;5059650;28;20472;-82
2023/08/09 02:35:06;;;;;;;4.00;2.60;;;;;;;;;;5059392;28;20530;-83
2023/08/09 02:37:34;;;;;;;3.67;2.53;;;;;;;;;;5059120;28;20467;-82
2023/08/09 02:40:01;;;;;;;2.60;2.03;;;;;;;;;;5059443;28;20452;-82
2023/08/09 02:42:28;;;;;;;3.10;2.33;;;;;;;;;;5059181;28;20551;-81
2023/08/09 02:44:55;;;;;;;2.73;2.00;;;;;;;;;;5058342;28;20481;-82
2023/08/09 02:47:23;;;;;;;2.77;2.17;;;;;;;;;;5059183;28;20558;-82
2023/08/09 02:49:51;;;;;;;2.97;2.20;;;;;;;;;;5059560;28;20832;-82
2023/08/09 02:52:18;;;;;;;3.00;2.03;;;;;;;;;;5058760;28;20516;-82
2023/08/09 02:54:47;;;;;;;2.53;1.70;;;;;;;;;;5058701;28;20460;-82
2023/08/09 02:57:14;;;;;;;3.50;2.23;;;;;;;;;;5058763;28;20457;-82
2023/08/09 02:59:42;;;;;;;2.07;1.70;;;;;;;;;;5058969;28;20465;-82
2023/08/09 03:02:09;;;;;;;3.37;2.30;;;;;;;;;;5058544;28;20485;-82
2023/08/09 03:04:36;;;;;;;2.60;2.00;;;;;;;;;;5058168;28;20467;-82
2023/08/09 03:07:04;;;;;;;2.93;2.13;;;;;;;;;;5057425;28;20445;-81
2023/08/09 03:09:32;;;;;;;2.67;1.90;;;;;;;;;;5058635;28;20445;-81
2023/08/09 03:11:59;;;;;;;4.50;2.70;;;;;;;;;;5058195;28;20528;-81
2023/08/09 03:14:26;;;;;;;7.30;4.53;;;;;;;;;;5058581;28;20456;-82
2023/08/09 03:16:53;;;;;;;4.40;3.80;;;;;;;;;;5058414;28;20507;-82
2023/08/09 03:19:20;;;;;;;4.10;3.70;;;;;;;;;;5058797;28;20829;-82
2023/08/09 03:21:47;;;;;;;3.60;2.70;;;;;;;;;;5058085;28;20471;-82
2023/08/09 03:24:16;;;;;;;3.23;2.50;;;;;;;;;;5057482;28;20456;-82
2023/08/09 03:26:43;;;;;;;5.07;3.30;;;;;;;;;;5057738;28;20445;-82
2023/08/09 03:29:10;;;;;;;3.93;2.77;;;;;;;;;;5057723;28;20457;-82
2023/08/09 03:31:37;;;;;;;3.40;2.60;;;;;;;;;;5058175;28;20476;-82
2023/08/09 03:34:05;;;;;;;3.43;2.53;;;;;;;;;;5058317;28;20919;-80
2023/08/09 03:36:32;;;;;;;3.43;2.20;;;;;;;;;;5057632;28;20860;-80
2023/08/09 03:38:59;;;;;;;3.30;2.43;;;;;;;;;;5057825;28;20453;-82
2023/08/09 03:41:28;;;;;;;3.60;2.70;;;;;;;;;;5057556;28;20473;-82
2023/08/09 03:43:55;;;;;;;2.50;2.10;;;;;;;;;;5058061;28;20461;-82
2023/08/09 03:46:22;;;;;;;5.63;2.57;;;;;;;;;;5057755;28;20448;-82
2023/08/09 03:48:49;;;;;;;2.40;2.20;;;;;;;;;;5057269;28;20452;-81
2023/08/09 03:51:16;;;;;;;3.00;2.60;;;;;;;;;;5057763;28;20539;-82
2023/08/09 03:53:44;;;;;;;3.10;2.53;;;;;;;;;;5057740;28;20455;-82
2023/08/09 03:56:11;;;;;;;7.53;5.20;;;;;;;;;;5058032;28;20542;-82
2023/08/09 03:58:39;;;;;;;6.53;4.30;;;;;;;;;;5057996;28;20418;-82
2023/08/09 04:01:07;;;;;;;5.80;4.90;;;;;;;;;;5058423;28;20461;-82
2023/08/09 04:03:34;;;;;;;4.53;3.00;;;;;;;;;;5057331;28;20915;-81
2023/08/09 04:06:02;;;;;;;7.47;3.43;;;;;;;;;;5055924;28;20453;-81
2023/08/09 04:08:31;;;;;;;4.50;3.13;;;;;;;;;;5057463;28;20654;-81
2023/08/09 04:10:59;;;;;;;6.40;3.40;;;;;;;;;;5057122;28;20452;-81
2023/08/09 04:13:26;;;;;;;3.20;2.90;;;;;;;;;;5057604;28;20453;-81
2023/08/09 04:15:56;;;;;;;3.27;2.97;;;;;;;;;;5055591;28;20481;-82
2023/08/09 04:18:23;;;;;;;3.10;2.67;;;;;;;;;;5055824;28;20500;-81
2023/08/09 04:20:50;;;;;;;3.07;2.40;;;;;;;;;;5055546;28;20821;-81
2023/08/09 04:23:17;;;;;;;3.00;2.30;;;;;;;;;;5056170;28;20526;-82
2023/08/09 04:25:46;;;;;;;2.80;2.50;;;;;;;;;;5055209;28;20561;-81
2023/08/09 04:28:13;;;;;;;5.73;2.37;;;;;;;;;;5056005;28;20564;-81
2023/08/09 04:30:40;;;;;;;2.50;2.20;;;;;;;;;;5056217;28;20453;-80
2023/08/09 04:33:09;;;;;;;8.70;2.70;;;;;;;;;;5055753;28;20513;-80
2023/08/09 04:35:37;;;;;;;3.20;2.50;;;;;;;;;;5056253;28;20492;-80
2023/08/09 04:38:05;;;;;;;2.97;2.30;;;;;;;;;;5056164;28;20487;-81
2023/08/09 04:40:34;;;;;;;5.90;2.83;;;;;;;;;;5056383;28;20463;-81
2023/08/09 04:43:01;;;;;;;4.10;2.97;;;;;;;;;;5056247;28;20511;-80
2023/08/09 04:45:28;;;;;;;5.40;3.20;;;;;;;;;;5056387;28;20520;-80
2023/08/09 04:47:56;;;;;;;3.30;3.00;;;;;;;;;;5055149;28;20827;-80
2023/08/09 04:50:25;;;;;;;3.07;2.37;;;;;;;;;;5057500;28;20464;-80
2023/08/09 04:52:52;;;;;;;5.47;2.30;;;;;;;;;;5056446;28;20476;-80
2023/08/09 04:55:19;;;;;;;3.70;3.20;;;;;;;;;;5055624;28;20528;-80
2023/08/09 04:57:47;;;;;;;5.83;2.70;;;;;;;;;;5055447;28;20448;-79
2023/08/09 05:00:15;;;;;;;4.77;3.13;;;;;;;;;;5056686;28;20586;-79
2023/08/09 05:02:42;;;;;;;3.20;2.90;;;;;;;;;;5056056;28;20473;-80
2023/08/09 05:05:10;;;;;;;5.50;4.60;;;;;;;;;;5056119;28;20812;-79
2023/08/09 05:07:39;;;;;;;4.20;3.57;;;;;;;;;;5056029;28;20452;-79
2023/08/09 05:10:07;;;;;;;3.30;2.77;;;;;;;;;;5056438;28;20449;-79
2023/08/09 05:12:34;;;;;;;4.57;2.97;;;;;;;;;;5055738;28;20473;-80
2023/08/09 05:15:02;;;;;;;11.83;4.03;;;;;;;;;;5056089;28;20453;-80
2023/08/09 05:17:29;;;;;;;15.30;6.07;;;;;;;;;;5055448;28;20560;-80
2023/08/09 05:19:56;;;;;;;6.43;5.10;;;;;;;;;;5055214;28;20449;-79
2023/08/09 05:22:25;;;;;;;3.10;2.80;;;;;;;;;;5069133;28;20478;-79
2023/08/09 05:24:53;;;;;;;6.10;3.27;;;;;;;;;;5076206;28;20444;-79
2023/08/09 05:27:20;;;;;;;3.43;3.00;;;;;;;;;;5075301;28;20820;-80
2023/08/09 05:29:47;;;;;;;3.03;2.73;;;;;;;;;;5073754;28;20448;-80
2023/08/09 05:32:15;;;;;;;3.73;3.13;;;;;;;;;;5076333;28;20468;-80
2023/08/09 05:34:42;;;;;;;4.17;3.03;;;;;;;;;;5075711;28;20819;-79
2023/08/09 05:37:09;;;;;;;3.60;3.27;;;;;;;;;;5079165;28;20495;-80
2023/08/09 05:39:36;;;;;;;5.53;4.13;;;;;;;;;;5079570;28;20447;-79
2023/08/09 05:42:05;;;;;;;4.93;3.60;;;;;;;;;;5079859;28;20896;-79
2023/08/09 05:44:32;;;;;;;5.57;3.30;;;;;;;;;;5079284;28;20452;-79
2023/08/09 05:46:59;;;;;;;3.67;3.27;;;;;;;;;;5079259;28;20817;-79
2023/08/09 05:49:26;;;;;;;5.43;3.60;;;;;;;;;;5079652;28;20463;-79
2023/08/09 05:51:54;;;;;;;3.03;2.73;;;;;;;;;;5079005;28;20823;-79
2023/08/09 05:54:22;;;;;;;4.37;3.43;;;;;;;;;;5079135;28;20463;-79
2023/08/09 05:56:49;;;;;;;3.27;2.80;;;;;;;;;;5079165;28;20502;-79
2023/08/09 05:59:17;;;;;;;6.43;3.43;;;;;;;;;;5079398;28;20444;-79
2023/08/09 06:01:44;;;;;;;4.10;3.20;;;;;;;;;;5078660;28;20459;-79
2023/08/09 06:04:12;;;;;;;6.73;4.83;;;;;;;;;;5078835;28;20452;-79
2023/08/09 06:06:39;;;;;;;5.73;4.33;;;;;;;;;;5078282;28;20490;-79
2023/08/09 06:09:06;;;;;;;3.93;3.13;;;;;;;;;;5077632;28;20443;-80
2023/08/09 06:11:34;;;;;;;6.50;2.97;;;;;;;;;;5078538;28;20468;-80
2023/08/09 06:14:01;;;;;;;3.30;2.60;;;;;;;;;;5078635;28;20455;-80
2023/08/09 06:16:29;;;;;;;3.40;3.10;;;;;;;;;;5078661;28;20491;-79
2023/08/09 06:18:57;;;;;;;7.57;3.30;;;;;;;;;;5078095;28;20971;-79
2023/08/09 06:21:24;;;;;;;6.30;4.07;;;;;;;;;;5078186;28;20462;-80
2023/08/09 06:23:51;;;;;;;6.40;3.20;;;;;;;;;;5079053;28;20451;-80
2023/08/09 06:26:18;;;;;;;4.40;3.47;;;;;;;;;;5078831;28;20778;-79
2023/08/09 06:28:45;;;;;;;4.17;3.53;;;;;;;;;;5078511;28;20532;-79
2023/08/09 06:31:12;;;;;;;5.00;4.17;;;;;;;;;;5078439;28;20450;-80
2023/08/09 06:33:42;;;;;;;9.53;6.80;;;;;;;;;;5078147;28;20456;-80
2023/08/09 06:36:10;;;;;;;4.60;3.57;;;;;;;;;;5078077;28;20495;-79
2023/08/09 06:38:37;;;;;;;7.50;3.70;;;;;;;;;;5078359;28;20454;-80
2023/08/09 06:41:05;;;;;;;7.00;3.60;;;;;;;;;;5077908;28;20817;-79
2023/08/09 06:43:32;;;;;;;4.50;2.80;;;;;;;;;;5078956;28;20431;-79
2023/08/09 06:45:59;;;;;;;5.10;4.33;;;;;;;;;;5078198;28;20448;-79
2023/08/09 06:48:29;;;;;;;5.73;3.53;;;;;;;;;;5077043;28;20447;-80
2023/08/09 06:50:58;;;;;;;5.37;3.83;;;;;;;;;;5077274;28;20574;-80
2023/08/09 06:53:25;;;;;;;5.00;3.70;;;;;;;;;;5077509;28;20470;-80
2023/08/09 06:55:52;;;;;;;7.53;3.60;;;;;;;;;;5077690;28;20452;-79
2023/08/09 06:58:20;;;;;;;8.00;3.43;;;;;;;;;;5078069;28;20448;-79
2023/08/09 07:00:47;;;;;;;6.53;3.87;;;;;;;;;;5077547;28;20447;-79
2023/08/09 07:03:14;;;;;;;7.13;3.17;;;;;;;;;;5077912;28;20476;-79
2023/08/09 07:05:42;;;;;;;4.63;3.37;;;;;;;;;;5077446;28;20454;-80
2023/08/09 07:08:12;;;;;;;5.50;4.40;;;;;;;;;;5077212;28;20464;-80
2023/08/09 07:10:39;;;;;;;5.00;4.07;;;;;;;;;;5078010;28;20538;-80
2023/08/09 07:13:06;;;;;;;4.83;3.60;;;;;;;;;;5077514;28;20467;-80
2023/08/09 07:15:33;;;;;;;6.00;3.73;;;;;;;;;;5078218;28;20448;-79
2023/08/09 07:18:00;;;;;;;5.10;3.10;;;;;;;;;;5077508;28;20895;-80
2023/08/09 07:20:27;;;;;;;4.70;3.30;;;;;;;;;;5078185;28;20908;-80
2023/08/09 07:22:55;;;;;;;6.33;4.00;;;;;;;;;;5077301;28;20464;-79
2023/08/09 07:25:23;;;;;;;4.20;3.20;;;;;;;;;;5077922;28;20952;-80
2023/08/09 07:27:51;;;;;;;7.30;3.80;;;;;;;;;;5077617;28;20440;-80
2023/08/09 07:30:19;;;;;;;4.60;3.00;;;;;;;;;;5077522;28;20822;-80
2023/08/09 07:32:47;;;;;;;3.43;2.73;;;;;;;;;;5076227;28;20468;-79
2023/08/09 07:35:14;;;;;;;4.33;2.83;;;;;;;;;;5074942;28;20812;-80
2023/08/09 07:37:43;;;;;;;3.43;3.00;;;;;;;;;;5074706;28;20544;-79
2023/08/09 07:40:12;;;;;;;5.70;3.33;;;;;;;;;;5075304;28;20464;-80
2023/08/09 07:42:41;;;;;;;6.20;3.20;;;;;;;;;;5076165;28;20926;-79
2023/08/09 07:45:09;;;;;;;5.60;3.93;;;;;;;;;;5075858;28;20463;-79
2023/08/09 07:47:36;;;;;;;7.23;3.63;;;;;;;;;;5076315;28;20460;-79
2023/08/09 07:50:05;;;;;;;5.77;3.37;;;;;;;;;;5076021;28;20452;-78
2023/08/09 07:52:32;;;;;;;5.30;3.73;;;;;;;;;;5075845;28;20489;-79
2023/08/09 07:55:00;;;;;;;5.67;3.20;;;;;;;;;;5076167;28;20525;-79
2023/08/09 07:57:27;;;;;;;5.33;3.77;;;;;;;;;;5075784;28;20551;-79
2023/08/09 07:59:55;;;;;;;3.27;2.97;;;;;;;;;;5075742;28;20456;-79
2023/08/09 08:02:22;;;;;;;4.30;3.30;;;;;;;;;;5075633;28;20476;-79
2023/08/09 08:04:49;;;;;;;3.73;3.43;;;;;;;;;;5075011;28;20460;-80
2023/08/09 08:07:17;;;;;;;4.73;4.23;;;;;;;;;;5075225;28;20467;-80
2023/08/09 08:09:45;;;;;;;4.67;3.67;;;;;;;;;;5075973;28;20444;-80
2023/08/09 08:12:13;;;;;;;4.00;3.60;;;;;;;;;;5075389;28;20570;-80
2023/08/09 08:14:40;;;;;;;4.07;2.77;;;;;;;;;;5074666;28;20459;-80
2023/08/09 08:17:08;;;;;;;3.67;2.80;;;;;;;;;;5075317;28;20483;-79
2023/08/09 08:19:36;;;;;;;6.93;2.53;;;;;;;;;;5075605;28;20462;-80
2023/08/09 08:22:05;;;;;;;3.00;2.50;;;;;;;;;;5075625;28;20476;-80
2023/08/09 08:24:33;;;;;;;4.37;2.90;;;;;;;;;;5075270;28;20462;-80
2023/08/09 08:27:00;;;;;;;7.90;2.83;;;;;;;;;;5075116;28;20464;-79
2023/08/09 08:29:27;;;;;;;2.60;2.40;;;;;;;;;;5076023;28;20455;-79
2023/08/09 08:31:55;;;;;;;4.00;3.10;;;;;;;;;;5075619;28;20482;-79
2023/08/09 08:34:24;;;;;;;3.30;2.73;;;;;;;;;;5075650;28;20448;-79
2023/08/09 08:36:51;;;;;;;4.40;2.80;;;;;;;;;;5075282;28;20600;-79
2023/08/09 08:39:19;;;;;;;3.23;2.37;;;;;;;;;;5075185;28;20458;-79
2023/08/09 08:41:49;;;;;;;4.80;3.00;;;;;;;;;;5071470;28;21013;-79
2023/08/09 08:44:16;;;;;;;6.20;3.17;;;;;;;;;;5057544;28;20508;-80
2023/08/09 08:46:43;;;;;;;5.30;3.67;;;;;;;;;;5056610;28;20459;-79
2023/08/09 08:49:13;;;;;;;9.20;3.83;;;;;;;;;;5055816;28;20499;-80
2023/08/09 08:51:41;;;;;;;4.00;3.30;;;;;;;;;;5054725;28;20487;-80
2023/08/09 08:54:09;;;;;;;2.90;2.57;;;;;;;;;;5056298;28;20500;-80
2023/08/09 08:56:36;;;;;;;5.57;2.73;;;;;;;;;;5054349;28;20456;-80
2023/08/09 08:59:03;;;;;;;3.23;2.70;;;;;;;;;;5055338;28;20471;-80
2023/08/09 09:01:31;;;;;;;2.57;2.37;;;;;;;;;;5055150;28;20535;-80
2023/08/09 09:03:59;;;;;;;4.00;2.83;;;;;;;;;;5055039;28;20511;-80
2023/08/09 09:06:26;;;;;;;7.07;2.80;;;;;;;;;;5054427;28;20461;-80
2023/08/09 09:08:56;;;;;;;3.03;2.73;;;;;;;;;;5054778;28;20812;-79
2023/08/09 09:11:24;;;;;;;3.53;2.93;;;;;;;;;;5054110;28;20477;-80
2023/08/09 09:13:52;;;;;;;3.93;2.53;;;;;;;;;;5052839;28;20526;-78
2023/08/09 09:16:20;;;;;;;2.83;2.53;;;;;;;;;;5053037;28;20459;-78
2023/08/09 09:18:48;;;;;;;2.50;2.30;;;;;;;;;;5052746;28;20555;-78
2023/08/09 09:21:16;;;;;;;3.20;2.90;;;;;;;;;;5053591;28;20567;-78
2023/08/09 09:23:43;;;;;;;3.40;2.63;;;;;;;;;;5051431;28;20487;-78
2023/08/09 09:26:14;;;;;;;3.03;2.70;;;;;;;;;;5053030;28;20530;-78
2023/08/09 09:28:42;;;;;;;6.23;2.80;;;;;;;;;;5053164;28;20858;-78
2023/08/09 09:31:10;;;;;;;2.63;2.30;;;;;;;;;;5053040;28;20444;-78
2023/08/09 09:33:39;;;;;;;2.87;2.57;;;;;;;;;;5053057;28;20468;-78
2023/08/09 09:36:10;;;;;;;6.93;3.43;;;;;;;;;;5052482;28;20838;-78
2023/08/09 09:38:38;;;;;;;5.50;2.90;;;;;;;;;;5052165;28;20484;-79
2023/08/09 09:41:07;;;;;;;4.10;2.40;;;;;;;;;;5052500;28;20481;-78
2023/08/09 09:43:38;;;;;;;3.17;2.87;;;;;;;;;;5053373;28;20457;-79
2023/08/09 09:46:06;;;;;;;4.00;2.90;;;;;;;;;;5052724;28;20452;-79
2023/08/09 09:48:34;;;;;;;7.93;2.53;;;;;;;;;;5052281;28;20532;-78
2023/08/09 09:51:02;;;;;;;4.03;3.50;;;;;;;;;;5052305;28;20452;-78
2023/08/09 09:53:30;;;;;;;5.63;3.33;;;;;;;;;;5051808;28;20499;-78
2023/08/09 09:55:57;;;;;;;4.97;3.63;;;;;;;;;;5051143;28;20449;-77
2023/08/09 09:58:25;;;;;;;4.13;3.27;;;;;;;;;;5051555;28;20983;-78
2023/08/09 10:00:56;;;;;;;7.43;2.63;;;;;;;;;;5052333;28;20453;-78
2023/08/09 10:03:24;;;;;;;4.90;2.90;;;;;;;;;;5052341;28;20514;-78
2023/08/09 10:05:52;;;;;;;4.30;3.10;;;;;;;;;;5052656;28;20460;-78
2023/08/09 10:08:20;;;;;;;4.73;3.00;;;;;;;;;;5055385;28;20471;-79
2023/08/09 10:10:49;;;;;;;4.83;2.50;;;;;;;;;;5055437;28;20456;-79
2023/08/09 10:13:18;;;;;;;4.67;2.37;;;;;;;;;;5055120;28;20476;-78
2023/08/09 10:15:48;;;;;;;3.57;2.80;;;;;;;;;;5055282;28;20836;-79
2023/08/09 10:18:20;;;;;;;3.87;2.80;;;;;;;;;;5054341;28;20587;-79
2023/08/09 10:20:51;;;;;;;4.73;2.93;;;;;;;;;;5053885;28;20453;-79
2023/08/09 10:23:21;;;;;;;2.90;2.70;;;;;;;;;;5055879;28;20616;-78
2023/08/09 10:25:50;;;;;;;2.93;2.63;;;;;;;;;;5057064;28;20456;-79
2023/08/09 10:28:17;;;;;;;2.97;2.67;;;;;;;;;;5057248;28;20551;-79
2023/08/09 10:30:48;;;;;;;3.97;3.40;;;;;;;;;;5057555;28;20515;-79
2023/08/09 10:33:18;;;;;;;4.80;4.30;;;;;;;;;;5056514;28;20492;-78
2023/08/09 10:35:51;;;;;;;4.57;2.83;;;;;;;;;;5057112;28;20499;-79
2023/08/09 10:38:19;;;;;;;4.77;3.80;;;;;;;;;;5056592;28;20484;-79
2023/08/09 10:40:51;;;;;;;5.90;3.97;;;;;;;;;;5064335;28;20464;-79
2023/08/09 10:43:20;;;;;;;3.40;3.10;;;;;;;;;;5077538;28;20992;-78
2023/08/09 10:45:48;;;;;;;3.90;2.90;;;;;;;;;;5078835;28;20459;-78
2023/08/09 10:48:21;;;;;;;4.20;3.13;;;;;;;;;;5078129;28;20501;-78
2023/08/09 10:51:00;;;;;;;4.53;3.20;;;;;;;;;;5078371;28;20447;-77
2023/08/09 10:53:28;;;;;;;7.10;4.37;;;;;;;;;;5077178;28;20526;-78
2023/08/09 10:55:56;;;;;;;3.43;2.87;;;;;;;;;;5077204;28;20866;-77
2023/08/09 10:58:27;;;;;;;3.90;3.40;;;;;;;;;;5076697;28;20494;-78
2023/08/09 11:00:54;;;;;;;4.80;3.40;;;;;;;;;;5077325;28;20941;-77
2023/08/09 11:03:22;;;;;;;4.03;3.63;;;;;;;;;;5075403;28;20440;-76
2023/08/09 11:05:54;;;;;;;3.70;2.90;;;;;;;;;;5075846;28;20886;-77
2023/08/09 11:08:22;;;;;;;5.23;3.47;;;;;;;;;;5076860;28;20497;-77
2023/08/09 11:10:49;;;;;;;7.07;3.13;;;;;;;;;;5075638;28;20465;-78
2023/08/09 11:13:18;;;;;;;8.00;3.13;;;;;;;;;;5075510;28;20472;-77
2023/08/09 11:15:46;;;;;;;3.97;3.43;;;;;;;;;;5076554;28;20447;-77
2023/08/09 11:18:13;;;;;;;7.07;4.43;;;;;;;;;;5076468;28;20483;-78
2023/08/09 11:20:41;;;;;;;4.07;3.77;;;;;;;;;;5075426;28;20448;-78
2023/08/09 11:23:10;;;;;;;3.93;3.10;;;;;;;;;;5077065;28;20478;-78
2023/08/09 11:25:37;;;;;;;6.47;4.13;;;;;;;;;;5078283;28;20455;-79
2023/08/09 11:28:06;;;;;;;7.30;4.10;;;;;;;;;;5078277;28;20452;-78
2023/08/09 11:30:33;;;;;;;8.50;4.70;;;;;;;;;;5078175;28;20456;-78
2023/08/09 11:33:02;;;;;;;5.27;4.00;;;;;;;;;;5078681;28;20554;-78
2023/08/09 11:35:33;;;;;;;4.33;3.77;;;;;;;;;;5079409;28;20895;-79
2023/08/09 11:38:00;;;;;;;4.67;4.10;;;;;;;;;;5080057;28;20495;-79
2023/08/09 11:40:29;;;;;;;4.37;3.43;;;;;;;;;;5079713;28;20875;-79
2023/08/09 11:42:57;;;;;;;5.23;3.50;;;;;;;;;;5079510;28;20502;-78
2023/08/09 11:45:24;;;;;;;6.70;4.67;;;;;;;;;;5078201;28;20547;-78
2023/08/09 11:47:53;;;;;;;4.30;3.80;;;;;;;;;;5077379;28;20450;-78
2023/08/09 11:50:21;;;;;;;4.97;3.83;;;;;;;;;;5078820;28;20463;-78
2023/08/09 11:52:52;;;;;;;5.60;4.87;;;;;;;;;;5078061;28;20578;-78
2023/08/09 11:55:19;;;;;;;7.40;5.00;;;;;;;;;;5079434;28;20825;-78
2023/08/09 11:57:48;;;;;;;8.30;5.10;;;;;;;;;;5078615;28;20505;-78
2023/08/09 12:00:15;;;;;;;5.63;5.00;;;;;;;;;;5077931;28;20460;-78
2023/08/09 12:02:43;;;;;;;5.70;4.50;;;;;;;;;;5077976;28;20479;-79
2023/08/09 12:05:11;;;;;;;7.17;4.27;;;;;;;;;;5079330;28;20810;-80
2023/08/09 12:07:38;;;;;;;7.23;4.73;;;;;;;;;;5084552;28;20575;-79
2023/08/09 12:10:05;;;;;;;5.97;4.33;;;;;;;;;;5083176;28;20819;-79
2023/08/09 12:12:36;;;;;;;9.13;4.03;;;;;;;;;;5083325;28;20463;-79
2023/08/09 12:15:05;;;;;;;4.33;3.33;;;;;;;;;;5082624;28;20546;-80
2023/08/09 12:17:33;;;;;;;3.97;3.50;;;;;;;;;;5083048;28;20452;-80
2023/08/09 12:20:00;;;;;;;6.20;4.43;;;;;;;;;;5083007;28;20447;-80
2023/08/09 12:22:28;;;;;;;5.47;3.67;;;;;;;;;;5081594;28;20483;-81
2023/08/09 12:24:56;;;;;;;3.53;3.20;;;;;;;;;;5083345;28;20440;-81
2023/08/09 12:27:23;;;;;;;4.07;3.00;;;;;;;;;;5081071;28;20477;-81
2023/08/09 12:29:51;;;;;;;4.77;3.23;;;;;;;;;;5081244;28;20440;-82
2023/08/09 12:32:20;;;;;;;4.23;3.67;;;;;;;;;;5080783;28;20990;-81
2023/08/09 12:34:48;;;;;;;3.13;2.83;;;;;;;;;;5080765;28;20948;-82
2023/08/09 12:37:15;;;;;;;3.30;2.73;;;;;;;;;;5080830;28;20452;-81
2023/08/09 12:39:42;;;;;;;5.00;4.03;;;;;;;;;;5080834;28;20488;-81
2023/08/09 12:42:10;;;;;;;7.10;4.43;;;;;;;;;;5081592;28;20522;-81
2023/08/09 12:44:37;;;;;;;5.10;3.70;;;;;;;;;;5080569;28;20447;-81
2023/08/09 12:47:04;;;;;;;4.13;3.73;;;;;;;;;;5079137;28;20447;-81
2023/08/09 12:49:32;;;;;;;3.27;2.80;;;;;;;;;;5080769;28;20455;-81
2023/08/09 12:52:00;;;;;;;4.27;2.97;;;;;;;;;;5079555;28;20586;-81
2023/08/09 12:54:27;;;;;;;10.23;3.63;;;;;;;;;;5077921;28;20808;-80
2023/08/09 12:56:54;;;;;;;5.80;3.97;;;;;;;;;;5076944;28;20932;-81
2023/08/09 12:59:22;;;;;;;3.80;3.37;;;;;;;;;;5077031;28;20479;-79
2023/08/09 13:01:49;;;;;;;3.73;3.27;;;;;;;;;;5078388;28;20494;-80
2023/08/09 13:04:18;;;;;;;5.93;4.13;;;;;;;;;;5078502;28;20459;-80
2023/08/09 13:06:47;;;;;;;3.93;3.63;;;;;;;;;;5077796;28;20450;-81
2023/08/09 13:09:14;;;;;;;5.87;3.93;;;;;;;;;;5078439;28;20466;-81
2023/08/09 13:11:41;;;;;;;3.80;2.87;;;;;;;;;;5078635;28;20466;-81
2023/08/09 13:14:09;;;;;;;6.13;3.70;;;;;;;;;;5080498;28;20448;-81
2023/08/09 13:16:36;;;;;;;5.50;2.87;;;;;;;;;;5079807;28;20485;-81
2023/08/09 13:19:04;;;;;;;4.03;3.40;;;;;;;;;;5079503;28;20835;-81
2023/08/09 13:21:31;;;;;;;3.90;3.20;;;;;;;;;;5079405;28;20480;-80
2023/08/09 13:24:00;;;;;;;3.97;3.43;;;;;;;;;;5079272;28;20452;-80
2023/08/09 13:26:27;;;;;;;3.67;3.27;;;;;;;;;;5078987;28;20451;-81
2023/08/09 13:28:54;;;;;;;5.10;4.00;;;;;;;;;;5078400;28;20887;-81
2023/08/09 13:31:21;;;;;;;7.47;5.40;;;;;;;;;;5079292;28;20483;-81
2023/08/09 13:33:48;;;;;;;4.10;3.70;;;;;;;;;;5079744;28;20454;-80
2023/08/09 13:36:16;;;;;;;5.50;2.80;;;;;;;;;;5079545;28;20512;-81
2023/08/09 13:38:43;;;;;;;4.97;3.53;;;;;;;;;;5080714;28;20530;-80
2023/08/09 13:41:11;;;;;;;4.90;3.70;;;;;;;;;;5079876;28;20819;-80
2023/08/09 13:43:39;;;;;;;6.50;3.77;;;;;;;;;;5080591;28;20451;-80
2023/08/09 13:46:07;;;;;;;11.73;5.30;;;;;;;;;;5081112;28;20939;-80
2023/08/09 13:48:34;;;;;;;3.70;3.30;;;;;;;;;;5078579;28;20455;-81
2023/08/09 13:51:01;;;;;;;4.50;3.43;;;;;;;;;;5076867;28;20498;-80
2023/08/09 13:53:29;;;;;;;5.73;2.90;;;;;;;;;;5077078;28;20524;-80
2023/08/09 13:55:56;;;;;;;5.80;2.83;;;;;;;;;;5076496;28;20499;-81
2023/08/09 13:58:24;;;;;;;5.30;3.00;;;;;;;;;;5081112;28;20980;-81
2023/08/09 14:00:52;;;;;;;4.03;2.80;;;;;;;;;;5082895;28;20511;-80
2023/08/09 14:03:19;;;;;;;2.93;2.40;;;;;;;;;;5080488;28;20494;-81
2023/08/09 14:05:46;;;;;;;6.10;3.43;;;;;;;;;;5078807;28;20474;-79
2023/08/09 14:08:13;;;;;;;5.70;4.30;;;;;;;;;;5078667;28;20491;-81
2023/08/09 14:10:41;;;;;;;5.57;3.07;;;;;;;;;;5079079;28;20442;-80
2023/08/09 14:13:08;;;;;;;3.50;2.90;;;;;;;;;;5079506;28;20483;-80
2023/08/09 14:15:37;;;;;;;7.50;3.40;;;;;;;;;;5079429;28;20456;-81
2023/08/09 14:18:04;;;;;;;3.90;2.90;;;;;;;;;;5079592;28;20451;-80
2023/08/09 14:20:32;;;;;;;3.10;2.80;;;;;;;;;;5079518;28;20452;-80
2023/08/09 14:22:59;;;;;;;4.70;2.90;;;;;;;;;;5079846;28;20479;-80
2023/08/09 14:25:26;;;;;;;3.27;2.60;;;;;;;;;;5079561;28;20447;-79
2023/08/09 14:27:53;;;;;;;3.20;2.90;;;;;;;;;;5078931;28;20458;-81
2023/08/09 14:30:21;;;;;;;10.20;2.40;;;;;;;;;;5078823;28;20439;-80
2023/08/09 14:32:49;;;;;;;3.40;2.43;;;;;;;;;;5078757;28;20468;-81
2023/08/09 14:35:16;;;;;;;3.13;2.80;;;;;;;;;;5080415;28;20542;-79
2023/08/09 14:37:43;;;;;;;3.50;2.90;;;;;;;;;;5081357;28;20551;-79
2023/08/09 14:40:12;;;;;;;2.80;2.60;;;;;;;;;;5083546;28;20491;-79
2023/08/09 14:42:40;;;;;;;4.20;2.30;;;;;;;;;;5082230;28;20459;-78
2023/08/09 14:45:08;;;;;;;3.80;3.17;;;;;;;;;;5081721;28;20519;-79
2023/08/09 14:47:35;;;;;;;5.27;2.67;;;;;;;;;;5080594;28;20501;-79